createdAt,value
2018-07-25T00:00:58.271Z,101431.75
2018-07-25T00:04:00.306Z,101431.53
2018-07-25T00:07:02.437Z,101435.23
2018-07-25T00:10:04.380Z,101438.14
2018-07-25T00:13:06.433Z,101437.38
2018-07-25T00:16:08.603Z,101437.00
2018-07-25T00:19:11.613Z,101439.74
2018-07-25T00:22:13.699Z,101446.43
2018-07-25T00:25:15.640Z,101443.42
2018-07-25T00:28:17.705Z,101441.33
2018-07-25T00:31:19.775Z,101440.23
2018-07-25T00:34:21.834Z,101436.66
2018-07-25T00:37:23.902Z,101436.08
2018-07-25T00:40:26.040Z,101439.51
2018-07-25T00:43:28.034Z,101443.99
2018-07-25T00:46:30.117Z,101435.59
2018-07-25T00:49:32.184Z,101438.93
2018-07-25T00:52:34.138Z,101441.60
2018-07-25T00:55:37.236Z,101444.21
2018-07-25T00:58:39.292Z,101446.11
2018-07-25T01:01:41.268Z,101444.29
2018-07-25T01:04:43.327Z,101445.11
2018-07-25T01:07:45.456Z,101450.99
2018-07-25T01:10:47.495Z,101447.19
2018-07-25T01:13:49.564Z,101443.96
2018-07-25T01:16:52.221Z,101444.33
2018-07-25T01:19:54.295Z,101442.99
2018-07-25T01:22:56.377Z,101446.87
2018-07-25T01:25:58.459Z,101450.47
2018-07-25T01:29:00.484Z,101453.19
2018-07-25T01:32:02.482Z,101452.24
2018-07-25T01:35:04.584Z,101457.70
2018-07-25T01:38:06.588Z,101460.43
2018-07-25T01:41:13.733Z,101463.94
2018-07-25T01:44:15.880Z,101467.49
2018-07-25T01:47:17.955Z,101462.02
2018-07-25T01:50:20.064Z,101465.84
2018-07-25T01:53:22.183Z,101464.31
2018-07-25T01:56:24.287Z,101464.02
2018-07-25T01:59:28.008Z,101471.58
2018-07-25T02:02:29.971Z,101470.44
2018-07-25T02:05:32.082Z,101470.52
2018-07-25T02:08:34.230Z,101473.78
2018-07-25T02:11:36.223Z,101474.89
2018-07-25T02:14:38.356Z,101476.61
2018-07-25T02:17:40.392Z,101475.86
2018-07-25T02:20:43.318Z,101475.25
2018-07-25T02:23:46.337Z,101478.29
2018-07-25T02:26:48.455Z,101480.28
2018-07-25T02:29:50.539Z,101480.26
2018-07-25T02:32:52.559Z,101484.34
2018-07-25T02:35:55.665Z,101486.99
2018-07-25T02:38:57.703Z,101485.57
2018-07-25T02:41:59.682Z,101487.32
2018-07-25T02:45:01.774Z,101492.13
2018-07-25T02:48:04.003Z,101497.28
2018-07-25T02:51:06.119Z,101502.28
2018-07-25T02:54:08.295Z,101501.39
2018-07-25T02:57:10.341Z,101501.88
2018-07-25T03:00:13.171Z,101499.52
2018-07-25T03:03:15.287Z,101508.38
2018-07-25T03:06:17.486Z,101505.15
2018-07-25T03:09:19.619Z,101502.73
2018-07-25T03:12:21.713Z,101508.28
2018-07-25T03:15:23.796Z,101505.33
2018-07-25T03:18:25.927Z,101508.53
2018-07-25T03:21:28.035Z,101510.32
2018-07-25T03:24:31.091Z,101509.46
2018-07-25T03:27:33.090Z,101518.68
2018-07-25T03:30:35.031Z,101519.37
2018-07-25T03:33:37.203Z,101523.49
2018-07-25T03:36:39.169Z,101517.24
2018-07-25T03:39:41.280Z,101521.70
2018-07-25T03:42:44.321Z,101526.31
2018-07-25T03:45:46.551Z,101526.67
2018-07-25T03:48:48.712Z,101526.09
2018-07-25T03:51:50.663Z,101525.91
2018-07-25T03:54:52.688Z,101526.39
2018-07-25T03:57:54.948Z,101531.44
2018-07-25T04:00:57.985Z,101538.35
2018-07-25T04:04:00.084Z,101538.68
2018-07-25T04:07:05.732Z,101545.51
2018-07-25T04:10:07.795Z,101547.82
2018-07-25T04:13:09.870Z,101547.14
2018-07-25T04:16:12.025Z,101546.66
2018-07-25T04:19:14.886Z,101549.75
2018-07-25T04:22:16.987Z,101551.13
2018-07-25T04:25:19.154Z,101558.29
2018-07-25T04:28:21.236Z,101556.74
2018-07-25T04:31:23.204Z,101559.94
2018-07-25T04:34:25.326Z,101561.25
2018-07-25T04:37:27.639Z,101564.81
2018-07-25T04:40:29.683Z,101568.96
2018-07-25T04:43:31.781Z,101568.92
2018-07-25T04:46:34.054Z,101569.15
2018-07-25T04:49:36.035Z,101566.93
2018-07-25T04:52:38.174Z,101575.31
2018-07-25T04:55:40.280Z,101569.32
2018-07-25T04:58:43.352Z,101573.83
2018-07-25T05:01:45.478Z,101577.32
2018-07-25T05:04:47.589Z,101577.10
2018-07-25T05:07:49.655Z,101582.08
2018-07-25T05:10:51.675Z,101579.47
2018-07-25T05:13:53.802Z,101579.07
2018-07-25T05:16:55.880Z,101582.27
2018-07-25T05:19:58.134Z,101584.71
2018-07-25T05:23:01.254Z,101584.09
2018-07-25T05:26:03.159Z,101586.00
2018-07-25T05:29:05.269Z,101591.79
2018-07-25T05:32:07.465Z,101591.78
2018-07-25T05:35:10.756Z,101595.18
2018-07-25T05:38:13.810Z,101600.29
2018-07-25T05:41:15.979Z,101595.90
2018-07-25T05:44:17.982Z,101600.32
2018-07-25T05:47:20.236Z,101602.73
2018-07-25T05:50:22.343Z,101598.82
2018-07-25T05:53:24.395Z,101599.15
2018-07-25T05:56:26.632Z,101600.98
2018-07-25T05:59:28.744Z,101603.85
2018-07-25T06:02:30.857Z,101605.47
2018-07-25T06:05:32.939Z,101603.96
2018-07-25T06:08:34.912Z,101604.41
2018-07-25T06:11:37.272Z,101605.87
2018-07-25T06:14:39.314Z,101601.25
2018-07-25T06:17:45.241Z,101605.24
2018-07-25T06:20:47.356Z,101603.22
2018-07-25T06:23:49.617Z,101608.05
2018-07-25T06:26:57.638Z,101611.24
2018-07-25T06:29:59.755Z,101607.25
2018-07-25T06:33:01.817Z,101610.19
2018-07-25T06:36:04.293Z,101609.58
2018-07-25T06:39:08.903Z,101610.12
2018-07-25T06:42:10.992Z,101613.29
2018-07-25T06:45:14.204Z,101614.69
2018-07-25T06:48:16.499Z,101622.16
2018-07-25T06:51:18.521Z,101618.81
2018-07-25T06:54:20.773Z,101619.01
2018-07-25T06:57:23.001Z,101625.96
2018-07-25T07:00:24.961Z,101628.88
2018-07-25T07:03:27.120Z,101625.03
2018-07-25T07:06:29.231Z,101626.20
2018-07-25T07:09:31.229Z,101629.68
2018-07-25T07:12:35.359Z,101626.23
2018-07-25T07:15:37.467Z,101627.47
2018-07-25T07:18:39.611Z,101627.24
2018-07-25T07:21:41.663Z,101625.35
2018-07-25T07:24:45.922Z,101628.01
2018-07-25T07:27:48.091Z,101627.34
2018-07-25T07:30:51.178Z,101627.56
2018-07-25T07:33:53.257Z,101625.86
2018-07-25T07:36:55.354Z,101627.86
2018-07-25T07:39:57.401Z,101623.77
2018-07-25T07:42:59.459Z,101620.72
2018-07-25T07:46:01.745Z,101625.00
2018-07-25T07:49:04.115Z,101623.53
2018-07-25T07:52:06.265Z,101623.00
2018-07-25T07:55:08.456Z,101623.47
2018-07-25T07:58:10.635Z,101622.45
2018-07-25T08:01:12.784Z,101622.88
2018-07-25T08:04:14.996Z,101622.40
2018-07-25T08:07:17.087Z,101623.28
2018-07-25T08:10:19.120Z,101618.86
2018-07-25T08:13:21.361Z,101621.95
2018-07-25T08:16:23.447Z,101619.02
2018-07-25T08:19:25.532Z,101620.50
2018-07-25T08:22:27.700Z,101623.82
2018-07-25T08:25:30.759Z,101620.08
2018-07-25T08:28:33.861Z,101617.03
2018-07-25T08:31:35.919Z,101613.76
2018-07-25T08:34:37.908Z,101615.44
2018-07-25T08:37:40.028Z,101614.68
2018-07-25T08:40:42.134Z,101616.28
2018-07-25T09:41:57.916Z,101577.80
2018-07-25T09:45:01.075Z,101572.19
2018-07-25T09:48:04.203Z,101565.08
2018-07-25T09:51:07.366Z,101561.03
2018-07-25T09:54:11.792Z,101559.81
2018-07-25T09:57:14.924Z,101557.63
2018-07-25T10:00:23.375Z,101555.21
2018-07-25T10:03:26.670Z,101557.40
2018-07-25T10:06:29.788Z,101549.43
2018-07-25T10:09:32.918Z,101548.01
2018-07-25T10:12:36.098Z,101552.02
2018-07-25T10:15:39.765Z,101544.75
2018-07-25T10:18:42.879Z,101546.08
2018-07-25T10:21:45.996Z,101541.42
2018-07-25T10:24:49.466Z,101538.25
2018-07-25T10:27:52.598Z,101537.52
2018-07-25T10:30:55.703Z,101527.67
2018-07-25T10:33:58.970Z,101524.58
2018-07-25T10:37:02.088Z,101525.43
2018-07-25T10:40:05.271Z,101525.07
2018-07-25T10:43:08.420Z,101521.83
2018-07-25T10:46:13.016Z,101520.02
2018-07-25T10:49:16.315Z,101516.78
2018-07-25T10:52:19.760Z,101515.88
2018-07-25T10:55:23.078Z,101507.45
2018-07-25T10:58:26.435Z,101510.64
2018-07-25T11:01:29.623Z,101511.64
2018-07-25T11:04:32.799Z,101508.92
2018-07-25T11:07:36.170Z,101497.50
2018-07-25T11:10:40.083Z,101497.41
2018-07-25T11:13:43.320Z,101488.31
2018-07-25T11:16:46.539Z,101493.03
2018-07-25T11:19:49.710Z,101487.04
2018-07-25T11:22:53.055Z,101483.30
2018-07-25T11:25:56.809Z,101480.55
2018-07-25T11:29:00.005Z,101477.34
2018-07-25T11:32:03.248Z,101482.43
2018-07-25T11:35:06.530Z,101477.84
2018-07-25T11:38:10.423Z,101477.25
2018-07-25T11:41:13.564Z,101483.41
2018-07-25T11:44:16.816Z,101480.81
2018-07-25T11:47:20.029Z,101478.95
2018-07-25T11:50:23.367Z,101492.06
2018-07-25T11:53:26.852Z,101501.78
2018-07-25T11:56:30.243Z,101523.82
2018-07-25T11:59:33.448Z,101516.79
2018-07-25T12:02:36.715Z,101520.16
2018-07-25T12:05:40.396Z,101521.66
2018-07-25T12:08:43.591Z,101521.36
2018-07-25T12:11:47.878Z,101520.38
2018-07-25T12:14:51.149Z,101518.39
2018-07-25T12:17:54.455Z,101518.05
2018-07-25T12:21:11.436Z,101520.84
2018-07-25T12:24:14.732Z,101514.17
2018-07-25T12:27:18.017Z,101507.63
2018-07-25T12:30:21.312Z,101498.67
2018-07-25T12:33:24.552Z,101496.09
2018-07-25T12:36:27.815Z,101492.11
2018-07-25T12:39:32.069Z,101493.63
2018-07-25T12:42:35.351Z,101488.58
2018-07-25T12:45:38.483Z,101490.65
2018-07-25T12:48:42.731Z,101483.34
2018-07-25T12:51:45.948Z,101487.52
2018-07-25T12:54:49.073Z,101477.50
2018-07-25T12:57:52.480Z,101472.41
2018-07-25T13:00:55.757Z,101473.21
2018-07-25T13:03:59.039Z,101474.77
2018-07-25T13:07:02.348Z,101471.13
2018-07-25T13:10:05.659Z,101466.92
2018-07-25T13:13:08.931Z,101463.68
2018-07-25T13:16:12.831Z,101459.28
2018-07-25T13:19:16.358Z,101465.28
2018-07-25T13:22:19.584Z,101465.49
2018-07-25T13:25:22.708Z,101460.10
2018-07-25T13:28:25.961Z,101457.19
2018-07-25T13:31:29.258Z,101452.42
2018-07-25T13:34:32.505Z,101455.21
2018-07-25T13:37:35.711Z,101453.82
2018-07-25T13:40:39.064Z,101451.40
2018-07-25T13:43:42.549Z,101448.25
2018-07-25T13:46:45.977Z,101443.45
2018-07-25T13:49:49.331Z,101441.24
2018-07-25T13:52:52.560Z,101432.74
2018-07-25T13:55:55.869Z,101427.24
2018-07-25T13:58:59.162Z,101428.74
2018-07-25T14:02:02.460Z,101434.61
2018-07-25T14:05:06.007Z,101426.46
2018-07-25T14:08:09.220Z,101420.69
2018-07-25T14:11:13.068Z,101413.67
2018-07-25T14:14:16.331Z,101417.86
2018-07-25T14:17:19.511Z,101415.13
2018-07-25T14:20:22.981Z,101415.18
2018-07-25T14:23:26.372Z,101408.69
2018-07-25T14:26:29.972Z,101406.55
2018-07-25T14:29:33.308Z,101406.49
2018-07-25T14:32:37.489Z,101402.44
2018-07-25T14:35:41.390Z,101402.04
2018-07-25T14:38:44.640Z,101396.97
2018-07-25T14:41:47.987Z,101400.05
2018-07-25T14:44:51.281Z,101398.50
2018-07-25T14:47:54.544Z,101394.03
2018-07-25T14:50:57.741Z,101387.32
2018-07-25T14:54:01.277Z,101383.42
2018-07-25T14:57:04.572Z,101382.99
2018-07-25T15:00:07.879Z,101374.42
2018-07-25T15:03:11.820Z,101379.93
2018-07-25T15:06:15.056Z,101376.55
2018-07-25T15:09:18.334Z,101370.79
2018-07-25T15:12:25.807Z,101368.05
2018-07-25T15:15:29.175Z,101362.17
2018-07-25T15:18:32.544Z,101361.11
2018-07-25T15:21:35.772Z,101358.65
2018-07-25T15:24:39.627Z,101350.10
2018-07-25T15:27:42.842Z,101353.51
2018-07-25T15:30:45.976Z,101346.31
2018-07-25T15:33:49.323Z,101346.82
2018-07-25T15:36:53.411Z,101341.09
2018-07-25T15:39:56.631Z,101337.72
2018-07-25T15:42:59.883Z,101337.92
2018-07-25T15:46:03.075Z,101336.70
2018-07-25T15:49:08.824Z,101340.57
2018-07-25T15:52:13.005Z,101335.92
2018-07-25T15:55:16.219Z,101331.48
2018-07-25T15:58:19.499Z,101323.67
2018-07-25T16:01:22.839Z,101326.85
2018-07-25T16:04:26.139Z,101324.97
2018-07-25T16:07:29.384Z,101327.27
2018-07-25T16:10:32.668Z,101324.15
2018-07-25T16:13:36.852Z,101323.36
2018-07-25T16:16:40.133Z,101316.02
2018-07-25T16:19:44.319Z,101308.57
2018-07-25T16:22:48.688Z,101305.38
2018-07-25T16:25:51.804Z,101307.27
2018-07-25T16:28:57.103Z,101307.59
2018-07-25T16:32:00.391Z,101306.17
2018-07-25T16:35:03.589Z,101298.33
2018-07-25T16:38:07.119Z,101293.64
2018-07-25T16:41:10.420Z,101291.96
2018-07-25T16:44:13.832Z,101294.42
2018-07-25T16:47:16.984Z,101297.46
2018-07-25T16:50:20.329Z,101300.95
2018-07-25T16:53:23.581Z,101297.34
2018-07-25T16:56:26.995Z,101300.50
2018-07-25T16:59:30.322Z,101297.51
2018-07-25T17:02:34.678Z,101296.10
2018-07-25T17:05:38.017Z,101295.06
2018-07-25T17:08:42.141Z,101294.48
2018-07-25T17:11:45.564Z,101297.94
2018-07-25T17:14:48.884Z,101299.95
2018-07-25T17:17:52.278Z,101297.11
2018-07-25T17:20:55.423Z,101298.36
2018-07-25T17:23:58.684Z,101296.65
2018-07-25T17:27:02.015Z,101296.97
2018-07-25T17:30:06.576Z,101298.22
2018-07-25T17:33:09.887Z,101301.77
2018-07-25T17:36:13.952Z,101299.76
2018-07-25T17:39:17.229Z,101299.95
2018-07-25T17:42:20.577Z,101304.88
2018-07-25T17:45:23.856Z,101307.99
2018-07-25T17:48:27.135Z,101311.26
2018-07-25T17:51:30.318Z,101317.64
2018-07-25T17:54:33.617Z,101321.32
2018-07-25T17:57:37.949Z,101334.80
2018-07-25T18:00:42.260Z,101342.46
2018-07-25T18:03:45.689Z,101348.92
2018-07-25T18:06:49.016Z,101359.26
2018-07-25T18:09:52.410Z,101363.45
2018-07-25T18:13:01.048Z,101371.76
2018-07-25T18:16:04.284Z,101368.53
2018-07-25T18:19:07.478Z,101375.53
2018-07-25T18:22:11.275Z,101380.06
2018-07-25T18:25:14.549Z,101376.49
2018-07-25T18:28:18.349Z,101379.92
2018-07-25T18:31:21.649Z,101379.65
2018-07-25T18:34:27.084Z,101387.38
2018-07-25T18:37:30.467Z,101386.98
2018-07-25T18:40:33.764Z,101388.80
2018-07-25T18:43:37.097Z,101395.03
2018-07-25T18:46:41.823Z,101398.47
2018-07-25T18:49:45.303Z,101405.50
2018-07-25T18:52:48.561Z,101402.80
2018-07-25T18:55:51.750Z,101401.25
2018-07-25T18:58:55.043Z,101399.95
2018-07-25T19:01:58.349Z,101402.13
2018-07-25T19:05:01.694Z,101403.73
2018-07-25T19:08:04.848Z,101399.85
2018-07-25T19:11:10.098Z,101401.73
2018-07-25T19:14:18.663Z,101403.49
2018-07-25T19:17:21.983Z,101411.19
2018-07-25T19:20:25.432Z,101415.16
2018-07-25T19:23:28.928Z,101410.21
2018-07-25T19:26:32.188Z,101405.92
2018-07-25T19:29:35.483Z,101410.07
2018-07-25T19:32:38.793Z,101412.25
2018-07-25T19:35:42.474Z,101411.79
2018-07-25T19:38:46.094Z,101414.69
2018-07-25T19:41:49.355Z,101418.89
2018-07-25T19:44:52.593Z,101417.24
2018-07-25T19:47:55.808Z,101417.42
2018-07-25T19:50:59.118Z,101424.14
2018-07-25T19:54:02.472Z,101423.20
2018-07-25T19:57:05.727Z,101425.96
2018-07-25T20:00:08.987Z,101425.67
2018-07-25T20:03:12.189Z,101421.12
2018-07-25T20:06:15.580Z,101420.62
2018-07-25T20:09:18.903Z,101427.55
2018-07-25T20:12:22.246Z,101430.36
2018-07-25T20:15:31.043Z,101434.49
2018-07-25T20:18:34.323Z,101439.40
2018-07-25T20:21:37.516Z,101442.84
2018-07-25T20:24:40.873Z,101445.80
2018-07-25T20:27:44.649Z,101438.85
2018-07-25T20:30:47.891Z,101446.02
2018-07-25T20:33:51.223Z,101455.35
2018-07-25T20:36:54.711Z,101448.15
2018-07-25T20:39:57.851Z,101450.44
2018-07-25T20:43:01.175Z,101456.23
2018-07-25T20:46:04.471Z,101453.95
2018-07-25T20:49:08.137Z,101454.28
2018-07-25T20:52:11.640Z,101462.61
2018-07-25T20:55:15.071Z,101464.92
2018-07-25T20:58:18.748Z,101460.69
2018-07-25T21:01:21.876Z,101461.01
2018-07-25T21:04:25.237Z,101462.69
2018-07-25T21:07:28.423Z,101461.72
2018-07-25T21:10:32.004Z,101457.82
2018-07-25T21:13:35.199Z,101459.16
2018-07-25T21:16:38.420Z,101455.87
2018-07-25T21:19:41.699Z,101458.49
2018-07-25T21:22:45.008Z,101463.19
2018-07-25T21:25:48.543Z,101467.24
2018-07-25T21:28:51.783Z,101472.97
2018-07-25T21:31:55.006Z,101473.86
2018-07-25T21:34:58.284Z,101479.78
2018-07-25T21:38:01.588Z,101484.03
2018-07-25T21:41:04.772Z,101490.87
2018-07-25T21:44:08.323Z,101498.20
2018-07-25T21:47:11.625Z,101494.70
2018-07-25T21:50:14.921Z,101499.75
2018-07-25T21:53:19.315Z,101503.75
2018-07-25T21:56:22.749Z,101500.54
2018-07-25T21:59:26.119Z,101504.05
2018-07-25T22:02:48.280Z,101506.10
2018-07-25T22:05:51.430Z,101500.67
2018-07-25T22:08:54.573Z,101500.92
2018-07-25T22:11:57.692Z,101497.87
2018-07-25T22:15:00.818Z,101501.74
2018-07-25T22:18:03.971Z,101501.80
2018-07-25T22:21:07.209Z,101504.36
2018-07-25T22:24:10.340Z,101495.95
2018-07-25T22:27:13.606Z,101498.77
2018-07-25T22:30:17.355Z,101497.52
2018-07-25T22:33:20.502Z,101496.40
2018-07-25T22:36:23.672Z,101494.49
2018-07-25T22:39:26.815Z,101491.57
2018-07-25T22:42:29.951Z,101491.32
2018-07-25T22:45:33.198Z,101491.47
2018-07-25T22:48:36.452Z,101493.76
2018-07-25T22:51:39.496Z,101491.09
2018-07-25T22:54:42.759Z,101494.10
2018-07-25T22:57:46.533Z,101490.73
2018-07-25T23:00:49.875Z,101501.32
2018-07-25T23:03:53.046Z,101506.94
2018-07-25T23:06:56.180Z,101503.88
2018-07-25T23:09:59.334Z,101499.80
2018-07-25T23:13:02.492Z,101495.74
2018-07-25T23:16:05.863Z,101487.99
2018-07-25T23:19:09.035Z,101490.80
2018-07-25T23:22:12.169Z,101493.94
2018-07-25T23:25:15.310Z,101494.90
2018-07-25T23:28:19.672Z,101502.92
2018-07-25T23:31:22.823Z,101497.33
2018-07-25T23:34:25.969Z,101498.86
2018-07-25T23:37:29.115Z,101487.18
2018-07-25T23:40:32.240Z,101491.30
2018-07-25T23:43:35.380Z,101491.31
2018-07-25T23:46:38.870Z,101489.33
2018-07-25T23:49:41.999Z,101492.91
2018-07-25T23:52:45.135Z,101498.92
2018-07-25T23:55:48.717Z,101496.19
2018-07-25T23:58:52.014Z,101496.84
